createdAt,value
2022-12-27T00:01:45.342Z,5.70
2022-12-27T00:04:13.255Z,5.70
2022-12-27T00:06:42.028Z,5.70
2022-12-27T00:09:10.157Z,5.60
2022-12-27T00:11:42.370Z,5.60
2022-12-27T00:14:12.221Z,5.50
2022-12-27T00:16:40.834Z,5.50
2022-12-27T00:19:08.946Z,5.50
2022-12-27T00:21:37.007Z,5.40
2022-12-27T00:24:05.856Z,5.30
2022-12-27T00:26:36.212Z,5.10
2022-12-27T00:29:05.531Z,5.00
2022-12-27T00:31:34.553Z,5.00
2022-12-27T00:34:05.673Z,4.80
2022-12-27T00:36:34.177Z,4.70
2022-12-27T00:39:05.346Z,4.60
2022-12-27T00:41:33.403Z,4.60
2022-12-27T00:44:03.409Z,4.50
2022-12-27T00:46:32.703Z,4.50
2022-12-27T00:49:00.635Z,4.30
2022-12-27T00:51:28.679Z,4.30
2022-12-27T00:53:57.111Z,4.20
2022-12-27T00:56:27.120Z,4.20
2022-12-27T00:58:55.324Z,4.20
2022-12-27T01:01:24.751Z,4.10
2022-12-27T01:03:54.961Z,4.10
2022-12-27T01:06:27.912Z,4.10
2022-12-27T01:08:56.209Z,4.10
2022-12-27T01:11:24.340Z,4.00
2022-12-27T01:13:52.269Z,4.00
2022-12-27T01:16:23.966Z,4.00
2022-12-27T01:18:53.926Z,3.90
2022-12-27T01:21:23.465Z,3.80
2022-12-27T01:23:52.032Z,3.80
2022-12-27T01:26:24.126Z,3.80
2022-12-27T01:28:53.996Z,3.80
2022-12-27T01:31:24.885Z,3.70
2022-12-27T01:33:57.625Z,3.70
2022-12-27T01:36:27.080Z,3.70
2022-12-27T01:38:55.267Z,3.70
2022-12-27T01:41:43.629Z,3.60
2022-12-27T01:44:54.162Z,3.60
2022-12-27T01:47:32.403Z,3.60
2022-12-27T01:50:11.159Z,3.60
2022-12-27T01:52:42.250Z,3.50
2022-12-27T01:55:19.339Z,3.50
2022-12-27T01:57:49.188Z,3.40
2022-12-27T02:00:17.739Z,3.40
2022-12-27T02:02:45.864Z,3.40
2022-12-27T02:05:18.073Z,3.40
2022-12-27T02:08:01.623Z,3.40
2022-12-27T02:10:30.561Z,3.50
2022-12-27T02:12:59.755Z,3.50
2022-12-27T02:15:30.551Z,3.50
2022-12-27T02:17:58.705Z,3.50
2022-12-27T02:20:32.676Z,3.50
2022-12-27T02:23:59.254Z,3.50
2022-12-27T02:26:50.164Z,3.50
2022-12-27T02:29:52.919Z,3.50
2022-12-27T02:32:26.577Z,3.50
2022-12-27T02:35:05.957Z,3.50
2022-12-27T02:37:38.302Z,3.50
2022-12-27T02:40:28.104Z,3.50
2022-12-27T02:43:14.496Z,3.60
2022-12-27T02:46:08.928Z,3.60
2022-12-27T02:48:54.435Z,3.60
2022-12-27T02:51:54.999Z,3.60
2022-12-27T02:54:37.523Z,3.70
2022-12-27T02:57:13.309Z,3.70
2022-12-27T03:00:21.254Z,3.70
2022-12-27T03:03:24.888Z,3.70
2022-12-27T03:06:42.773Z,3.80
2022-12-27T03:09:46.751Z,3.70
2022-12-27T03:12:37.835Z,3.70
2022-12-27T03:15:35.493Z,3.80
2022-12-27T03:18:10.334Z,3.80
2022-12-27T03:20:59.127Z,3.80
2022-12-27T03:23:46.023Z,3.80
2022-12-27T03:26:16.255Z,3.90
2022-12-27T03:29:04.095Z,3.80
2022-12-27T03:31:54.952Z,3.80
2022-12-27T03:34:38.241Z,3.90
2022-12-27T03:37:26.589Z,3.90
2022-12-27T03:40:04.707Z,3.90
2022-12-27T03:42:54.628Z,3.80
2022-12-27T03:45:43.193Z,3.80
2022-12-27T03:48:14.135Z,3.80
2022-12-27T03:50:47.872Z,3.90
2022-12-27T03:53:22.522Z,3.90
2022-12-27T03:55:50.620Z,4.00
2022-12-27T03:58:18.763Z,4.00
2022-12-27T04:00:46.745Z,4.10
2022-12-27T04:03:14.873Z,4.10
2022-12-27T04:05:44.365Z,4.00
2022-12-27T04:08:32.904Z,4.10
2022-12-27T04:11:19.579Z,4.20
2022-12-27T04:14:05.146Z,4.40
2022-12-27T04:16:50.467Z,4.40
2022-12-27T04:19:36.187Z,4.30
2022-12-27T04:22:22.976Z,4.30
2022-12-27T04:25:08.579Z,4.40
2022-12-27T04:27:54.242Z,4.50
2022-12-27T04:30:40.091Z,4.60
2022-12-27T04:33:25.571Z,4.70
2022-12-27T04:35:53.553Z,4.70
2022-12-27T04:38:22.938Z,4.60
2022-12-27T04:41:08.359Z,4.60
2022-12-27T04:43:53.880Z,4.60
2022-12-27T04:46:43.007Z,4.60
2022-12-27T04:49:32.649Z,4.60
2022-12-27T04:52:18.266Z,4.50
2022-12-27T04:54:59.821Z,4.40
2022-12-27T04:57:29.216Z,4.40
2022-12-27T05:00:20.147Z,4.30
2022-12-27T05:02:48.335Z,4.30
2022-12-27T05:05:16.533Z,4.20
2022-12-27T05:08:02.009Z,4.10
2022-12-27T05:10:48.683Z,4.00
2022-12-27T05:13:34.035Z,4.00
2022-12-27T05:16:02.054Z,3.80
2022-12-27T05:18:30.063Z,3.80
2022-12-27T05:21:03.263Z,3.90
2022-12-27T05:23:48.513Z,3.90
2022-12-27T05:26:22.052Z,3.80
2022-12-27T05:28:51.961Z,3.80
2022-12-27T05:31:20.231Z,3.70
2022-12-27T05:33:48.649Z,3.70
2022-12-27T05:36:16.697Z,3.70
2022-12-27T05:38:44.986Z,3.60
2022-12-27T05:41:13.365Z,3.60
2022-12-27T05:43:42.856Z,3.60
2022-12-27T05:46:12.549Z,3.60
2022-12-27T05:48:40.917Z,3.50
2022-12-27T05:51:10.489Z,3.40
2022-12-27T05:53:38.795Z,3.40
2022-12-27T05:56:08.169Z,3.30
2022-12-27T05:58:36.521Z,3.30
2022-12-27T06:01:10.340Z,3.30
2022-12-27T06:03:39.062Z,3.20
2022-12-27T06:06:08.334Z,3.20
2022-12-27T06:08:36.830Z,3.20
2022-12-27T06:11:07.625Z,3.10
2022-12-27T06:13:36.267Z,3.10
2022-12-27T06:16:08.127Z,3.10
2022-12-27T06:18:38.170Z,3.10
2022-12-27T06:21:07.592Z,3.00
2022-12-27T06:23:36.972Z,3.10
2022-12-27T06:26:09.049Z,3.10
2022-12-27T06:28:37.133Z,3.10
2022-12-27T06:31:07.004Z,3.10
2022-12-27T06:33:35.306Z,3.10
2022-12-27T06:36:07.917Z,3.20
2022-12-27T06:38:35.962Z,3.20
2022-12-27T06:41:04.369Z,3.30
2022-12-27T06:43:32.518Z,3.40
2022-12-27T06:46:02.285Z,3.40
2022-12-27T06:48:31.914Z,3.40
2022-12-27T06:51:00.026Z,3.40
2022-12-27T06:53:29.744Z,3.40
2022-12-27T06:55:57.707Z,3.40
2022-12-27T06:58:25.965Z,3.40
2022-12-27T07:00:53.966Z,3.40
2022-12-27T07:03:22.096Z,3.30
2022-12-27T07:05:51.556Z,3.30
2022-12-27T07:08:19.543Z,3.30
2022-12-27T07:10:47.487Z,3.20
2022-12-27T07:13:15.493Z,3.20
2022-12-27T07:15:43.406Z,3.10
2022-12-27T07:18:11.429Z,3.10
2022-12-27T07:20:39.520Z,3.10
2022-12-27T07:23:15.796Z,3.10
2022-12-27T07:25:47.010Z,3.00
2022-12-27T07:28:14.917Z,3.00
2022-12-27T07:30:43.026Z,2.90
2022-12-27T07:33:11.008Z,3.00
2022-12-27T07:35:45.058Z,3.00
2022-12-27T07:38:15.913Z,3.10
2022-12-27T07:40:43.781Z,3.10
2022-12-27T07:43:13.597Z,3.10
2022-12-27T07:45:41.507Z,3.20
2022-12-27T07:48:09.509Z,3.30
2022-12-27T07:50:38.657Z,3.30
2022-12-27T07:53:06.483Z,3.40
2022-12-27T07:55:35.771Z,3.40
2022-12-27T07:58:08.321Z,3.50
2022-12-27T08:00:36.014Z,3.60
2022-12-27T08:03:04.075Z,3.60
2022-12-27T08:05:31.956Z,3.60
2022-12-27T08:08:01.722Z,3.70
2022-12-27T08:10:29.660Z,3.80
2022-12-27T08:12:58.986Z,3.80
2022-12-27T08:15:26.954Z,3.80
2022-12-27T08:17:54.887Z,3.80
2022-12-27T08:20:22.903Z,3.80
2022-12-27T08:22:50.727Z,3.80
2022-12-27T08:25:18.845Z,3.90
2022-12-27T08:27:46.752Z,3.90
2022-12-27T08:30:16.501Z,3.90
2022-12-27T08:32:44.378Z,4.00
2022-12-27T08:35:50.276Z,4.00
2022-12-27T08:38:02.235Z,4.10
2022-12-27T08:40:37.242Z,4.10
2022-12-27T08:43:07.259Z,4.20
2022-12-27T08:45:38.960Z,4.20
2022-12-27T08:48:10.176Z,4.30
2022-12-27T08:50:38.020Z,4.40
2022-12-27T08:53:06.913Z,4.50
2022-12-27T08:55:37.853Z,4.50
2022-12-27T08:58:13.958Z,4.60
2022-12-27T09:00:45.539Z,4.70
2022-12-27T09:03:13.576Z,4.70
2022-12-27T09:05:42.299Z,4.80
2022-12-27T09:08:14.365Z,4.90
2022-12-27T09:10:42.214Z,5.00
2022-12-27T09:13:10.206Z,5.10
2022-12-27T09:15:40.098Z,5.10
2022-12-27T09:18:10.878Z,5.20
2022-12-27T09:20:39.214Z,5.40
2022-12-27T09:23:07.157Z,5.50
2022-12-27T09:25:38.200Z,5.50
2022-12-27T09:28:08.007Z,5.70
2022-12-27T09:30:36.008Z,5.80
2022-12-27T09:33:03.957Z,6.00
2022-12-27T09:35:38.465Z,6.00
2022-12-27T09:38:10.555Z,6.20
2022-12-27T09:40:38.921Z,6.40
2022-12-27T09:43:19.458Z,6.60
2022-12-27T09:45:52.687Z,6.70
2022-12-27T09:48:33.036Z,7.00
2022-12-27T09:51:06.435Z,7.10
2022-12-27T09:53:42.765Z,7.20
2022-12-27T09:56:13.867Z,7.30
2022-12-27T09:58:47.294Z,7.40
2022-12-27T10:01:22.581Z,7.50
2022-12-27T10:03:50.903Z,7.70
2022-12-27T10:06:38.506Z,7.80
2022-12-27T10:09:21.064Z,7.90
2022-12-27T10:11:59.734Z,8.00
2022-12-27T10:14:49.376Z,8.00
2022-12-27T10:17:31.510Z,8.00
2022-12-27T10:20:09.643Z,8.10
2022-12-27T10:22:47.341Z,8.20
2022-12-27T10:25:19.788Z,8.30
2022-12-27T10:27:48.427Z,8.40
2022-12-27T10:30:25.528Z,8.40
2022-12-27T10:32:53.940Z,8.30
2022-12-27T10:35:22.833Z,8.10
2022-12-27T10:37:53.998Z,7.90
2022-12-27T10:40:29.822Z,7.90
2022-12-27T10:43:04.571Z,7.80
2022-12-27T10:45:36.397Z,7.90
2022-12-27T10:48:20.266Z,8.00
2022-12-27T10:50:52.069Z,8.20
2022-12-27T10:53:45.061Z,8.30
2022-12-27T10:56:16.965Z,8.70
2022-12-27T10:58:56.581Z,9.10
2022-12-27T11:01:28.421Z,9.40
2022-12-27T11:04:19.376Z,10.00
2022-12-27T11:06:50.171Z,10.60
2022-12-27T11:09:28.883Z,11.20
2022-12-27T11:12:21.752Z,11.10
2022-12-27T11:14:55.237Z,10.60
2022-12-27T11:17:26.341Z,10.50
2022-12-27T11:19:54.962Z,10.90
2022-12-27T11:22:22.989Z,12.20
2022-12-27T11:24:57.055Z,13.00
2022-12-27T11:27:28.468Z,13.60
2022-12-27T11:29:59.518Z,14.30
2022-12-27T11:32:31.451Z,14.50
2022-12-27T11:34:59.525Z,14.20
2022-12-27T11:37:31.362Z,13.60
2022-12-27T11:40:24.021Z,12.80
2022-12-27T11:42:57.963Z,12.10
2022-12-27T11:45:34.360Z,11.70
2022-12-27T11:48:07.227Z,11.90
2022-12-27T11:50:46.702Z,12.30
2022-12-27T11:53:29.810Z,12.80
2022-12-27T11:56:14.117Z,13.20
2022-12-27T11:59:19.576Z,13.60
2022-12-27T12:02:14.410Z,13.80
2022-12-27T12:05:07.014Z,13.60
2022-12-27T12:07:54.652Z,12.90
2022-12-27T12:10:35.485Z,12.60
2022-12-27T12:13:21.935Z,12.50
2022-12-27T12:16:07.688Z,12.50
2022-12-27T12:19:07.773Z,13.30
2022-12-27T12:21:41.531Z,14.00
2022-12-27T12:24:43.126Z,14.70
2022-12-27T12:27:27.852Z,15.30
2022-12-27T12:30:34.328Z,15.00
2022-12-27T12:33:23.370Z,15.40
2022-12-27T12:36:08.769Z,15.60
2022-12-27T12:38:44.653Z,15.90
2022-12-27T12:41:45.733Z,15.40
2022-12-27T12:44:41.769Z,14.40
2022-12-27T12:47:40.770Z,13.30
2022-12-27T12:50:36.536Z,12.50
2022-12-27T12:53:29.900Z,11.80
2022-12-27T12:56:14.973Z,10.90
2022-12-27T12:58:54.027Z,10.40
2022-12-27T13:01:35.649Z,10.00
2022-12-27T13:04:14.044Z,9.60
2022-12-27T13:07:08.389Z,9.60
2022-12-27T13:09:56.532Z,9.60
2022-12-27T13:12:33.080Z,9.60
2022-12-27T13:15:24.249Z,9.60
2022-12-27T13:18:03.360Z,9.60
2022-12-27T13:21:08.031Z,9.50
2022-12-27T13:23:48.836Z,9.30
2022-12-27T13:26:26.443Z,9.20
2022-12-27T13:29:12.022Z,9.20
2022-12-27T13:31:48.722Z,9.20
2022-12-27T13:34:30.405Z,9.20
2022-12-27T13:37:11.440Z,9.10
2022-12-27T13:39:50.376Z,9.00
2022-12-27T13:42:40.548Z,8.80
2022-12-27T13:45:26.102Z,8.70
2022-12-27T13:48:06.398Z,8.60
2022-12-27T13:50:45.650Z,8.40
2022-12-27T13:53:55.592Z,8.30
2022-12-27T13:56:56.253Z,8.20
2022-12-27T13:59:51.150Z,8.20
2022-12-27T14:02:53.873Z,8.20
2022-12-27T14:05:51.174Z,8.20
2022-12-27T14:08:29.283Z,8.20
2022-12-27T14:11:01.299Z,8.20
2022-12-27T14:13:35.733Z,8.20
2022-12-27T14:16:30.696Z,8.20
2022-12-27T14:19:15.839Z,8.20
2022-12-27T14:22:14.944Z,8.20
2022-12-27T14:25:09.379Z,8.20
2022-12-27T14:28:16.591Z,8.10
2022-12-27T14:31:34.570Z,8.10
2022-12-27T14:34:25.181Z,8.20
2022-12-27T14:37:23.024Z,8.20
2022-12-27T14:40:38.901Z,8.30
2022-12-27T14:43:48.381Z,8.40
2022-12-27T14:46:41.764Z,8.40
2022-12-27T14:49:46.518Z,8.40
2022-12-27T14:52:34.932Z,8.40
2022-12-27T14:55:46.921Z,8.40
2022-12-27T14:58:27.929Z,8.30
2022-12-27T15:01:07.346Z,8.30
2022-12-27T15:04:03.442Z,8.20
2022-12-27T15:06:57.668Z,8.10
2022-12-27T15:09:37.065Z,8.00
2022-12-27T15:12:15.169Z,7.90
2022-12-27T15:14:59.133Z,7.80
2022-12-27T15:17:39.636Z,7.70
2022-12-27T15:20:27.250Z,7.50
2022-12-27T15:23:08.050Z,7.40
2022-12-27T15:25:48.375Z,7.20
2022-12-27T15:28:23.092Z,7.00
2022-12-27T15:31:02.385Z,6.90
2022-12-27T15:33:40.421Z,6.70
2022-12-27T15:36:14.438Z,6.60
2022-12-27T15:38:53.455Z,6.50
2022-12-27T15:41:28.006Z,6.50
2022-12-27T15:44:12.306Z,6.50
2022-12-27T15:47:08.494Z,6.40
2022-12-27T15:49:57.961Z,6.40
2022-12-27T15:52:34.693Z,6.30
2022-12-27T15:55:35.352Z,6.20
2022-12-27T15:58:15.166Z,6.20
2022-12-27T16:00:44.404Z,6.20
2022-12-27T16:03:35.328Z,6.20
2022-12-27T16:06:05.791Z,6.20
2022-12-27T16:08:36.740Z,6.20
2022-12-27T16:11:10.601Z,6.20
2022-12-27T16:13:45.635Z,6.20
2022-12-27T16:16:55.867Z,6.20
2022-12-27T16:20:04.222Z,6.10
2022-12-27T16:22:39.123Z,6.00
2022-12-27T16:25:30.611Z,6.00
2022-12-27T16:28:03.699Z,5.90
2022-12-27T16:30:35.331Z,5.80
2022-12-27T16:33:04.384Z,5.80
2022-12-27T16:35:34.260Z,5.70
2022-12-27T16:38:04.393Z,5.60
2022-12-27T16:40:47.186Z,5.60
2022-12-27T16:43:50.505Z,5.50
2022-12-27T16:46:31.400Z,5.50
2022-12-27T16:49:14.425Z,5.40
2022-12-27T16:51:59.160Z,5.40
2022-12-27T16:54:37.686Z,5.20
2022-12-27T16:57:40.087Z,5.10
2022-12-27T17:00:37.407Z,4.90
2022-12-27T17:03:46.742Z,4.90
2022-12-27T17:06:55.983Z,4.90
2022-12-27T17:09:46.740Z,4.90
2022-12-27T17:12:23.468Z,4.90
2022-12-27T17:14:58.324Z,4.80
2022-12-27T17:17:26.890Z,4.90
2022-12-27T17:20:03.213Z,4.90
2022-12-27T17:22:35.892Z,4.90
2022-12-27T17:25:04.841Z,4.90
2022-12-27T17:27:55.929Z,4.90
2022-12-27T17:30:27.120Z,4.90
2022-12-27T17:33:23.059Z,4.90
2022-12-27T17:36:18.411Z,4.90
2022-12-27T17:38:58.237Z,4.90
2022-12-27T17:41:58.722Z,4.90
2022-12-27T17:44:40.675Z,4.80
2022-12-27T17:47:21.221Z,4.80
2022-12-27T17:49:49.218Z,4.80
2022-12-27T17:52:36.209Z,4.80
2022-12-27T17:55:36.429Z,4.80
2022-12-27T17:58:08.564Z,4.90
2022-12-27T18:00:41.290Z,4.90
2022-12-27T18:03:14.054Z,4.80
2022-12-27T18:05:44.737Z,4.80
2022-12-27T18:08:23.589Z,4.70
2022-12-27T18:10:52.939Z,4.60
2022-12-27T18:13:23.819Z,4.60
2022-12-27T18:15:53.287Z,4.60
2022-12-27T18:18:28.927Z,4.60
2022-12-27T18:20:59.583Z,4.50
2022-12-27T18:23:28.305Z,4.50
2022-12-27T18:26:07.854Z,4.50
2022-12-27T18:28:39.339Z,4.50
2022-12-27T18:31:12.821Z,4.50
2022-12-27T18:33:44.479Z,4.50
2022-12-27T18:36:16.452Z,4.40
2022-12-27T18:38:46.669Z,4.40
2022-12-27T18:41:19.880Z,4.30
2022-12-27T18:43:54.568Z,4.30
2022-12-27T18:46:27.820Z,4.20
2022-12-27T18:48:55.821Z,4.20
2022-12-27T18:51:33.850Z,4.20
2022-12-27T18:54:02.223Z,4.10
2022-12-27T18:56:34.098Z,4.10
2022-12-27T18:59:05.921Z,4.10
2022-12-27T19:01:42.072Z,4.10
2022-12-27T19:04:22.067Z,4.20
2022-12-27T19:06:55.058Z,4.10
2022-12-27T19:09:25.757Z,4.10
2022-12-27T19:11:58.401Z,4.10
2022-12-27T19:14:30.306Z,4.10
2022-12-27T19:17:04.067Z,4.10
2022-12-27T19:19:35.245Z,4.10
2022-12-27T19:22:03.176Z,4.00
2022-12-27T19:24:33.987Z,4.00
2022-12-27T19:27:16.564Z,4.00
2022-12-27T19:29:52.460Z,4.00
2022-12-27T19:32:28.200Z,4.00
2022-12-27T19:34:59.367Z,4.00
2022-12-27T19:37:29.048Z,4.00
2022-12-27T19:39:57.354Z,4.00
2022-12-27T19:42:28.848Z,4.00
2022-12-27T19:44:56.811Z,4.00
2022-12-27T19:47:24.687Z,4.00
2022-12-27T19:49:53.670Z,4.00
2022-12-27T19:52:24.852Z,4.00
2022-12-27T19:54:59.185Z,3.90
2022-12-27T19:57:28.469Z,4.00
2022-12-27T19:59:56.533Z,3.90
2022-12-27T20:02:24.690Z,3.90
2022-12-27T20:04:52.974Z,3.90
2022-12-27T20:07:24.619Z,3.90
2022-12-27T20:09:52.547Z,3.90
2022-12-27T20:12:20.897Z,3.80
2022-12-27T20:14:50.258Z,3.80
2022-12-27T20:17:18.132Z,3.80
2022-12-27T20:19:46.028Z,3.80
2022-12-27T20:22:13.847Z,3.80
2022-12-27T20:24:41.632Z,3.80
2022-12-27T20:27:09.515Z,3.70
2022-12-27T20:29:37.519Z,3.70
2022-12-27T20:32:06.946Z,3.70
2022-12-27T20:34:34.817Z,3.70
2022-12-27T20:37:05.117Z,3.70
2022-12-27T20:39:32.974Z,3.60
2022-12-27T20:42:01.273Z,3.60
2022-12-27T20:44:29.294Z,3.70
2022-12-27T20:46:57.202Z,3.70
2022-12-27T20:49:28.772Z,3.60
2022-12-27T20:51:59.595Z,3.60
2022-12-27T20:54:29.100Z,3.60
2022-12-27T20:57:01.049Z,3.60
2022-12-27T20:59:29.000Z,3.50
2022-12-27T21:01:59.965Z,3.50
2022-12-27T21:04:31.882Z,3.50
2022-12-27T21:06:59.711Z,3.50
2022-12-27T21:09:27.599Z,3.40
2022-12-27T21:11:58.694Z,3.40
2022-12-27T21:14:28.001Z,3.40
2022-12-27T21:16:56.194Z,3.50
2022-12-27T21:19:25.420Z,3.50
2022-12-27T21:21:55.332Z,3.50
2022-12-27T21:24:23.300Z,3.50
2022-12-27T21:26:56.222Z,3.60
2022-12-27T21:29:24.990Z,3.60
2022-12-27T21:31:53.376Z,3.50
2022-12-27T21:34:22.158Z,3.50
2022-12-27T21:36:52.976Z,3.40
2022-12-27T21:39:22.305Z,3.40
2022-12-27T21:41:50.255Z,3.50
2022-12-27T21:44:18.264Z,3.40
2022-12-27T21:46:46.122Z,3.50
2022-12-27T21:49:17.180Z,3.40
2022-12-27T21:51:45.622Z,3.40
2022-12-27T21:54:13.943Z,3.40
2022-12-27T21:56:43.448Z,3.40
2022-12-27T21:59:12.114Z,3.40
2022-12-27T22:01:50.288Z,3.40
2022-12-27T22:04:22.965Z,3.40
2022-12-27T22:06:51.463Z,3.30
2022-12-27T22:09:19.964Z,3.30
2022-12-27T22:11:49.501Z,3.30
2022-12-27T22:14:25.196Z,3.30
2022-12-27T22:16:53.703Z,3.30
2022-12-27T22:19:21.603Z,3.30
2022-12-27T22:21:49.521Z,3.30
2022-12-27T22:24:19.551Z,3.30
2022-12-27T22:26:50.096Z,3.30
2022-12-27T22:29:18.394Z,3.30
2022-12-27T22:31:49.557Z,3.20
2022-12-27T22:34:17.411Z,3.10
2022-12-27T22:36:45.325Z,3.10
2022-12-27T22:39:13.420Z,3.10
2022-12-27T22:41:41.337Z,3.10
2022-12-27T22:44:14.065Z,3.00
2022-12-27T22:49:30.781Z,2.90
2022-12-27T22:51:58.712Z,3.00
2022-12-27T22:55:04.795Z,2.90
2022-12-27T22:57:15.806Z,3.00
2022-12-27T22:59:45.072Z,3.00
2022-12-27T23:02:13.874Z,3.00
2022-12-27T23:04:42.246Z,3.00
2022-12-27T23:07:10.191Z,3.00
2022-12-27T23:09:43.106Z,3.10
2022-12-27T23:12:11.881Z,3.00
2022-12-27T23:14:39.865Z,3.00
2022-12-27T23:17:09.111Z,3.00
2022-12-27T23:19:37.176Z,2.90
2022-12-27T23:22:05.017Z,2.90
2022-12-27T23:24:33.157Z,2.90
2022-12-27T23:27:01.163Z,3.00
2022-12-27T23:29:29.334Z,3.00
2022-12-27T23:31:57.304Z,3.00
2022-12-27T23:34:28.560Z,3.10
2022-12-27T23:36:57.199Z,3.10
2022-12-27T23:39:25.322Z,3.10
2022-12-27T23:41:53.182Z,3.10
2022-12-27T23:44:34.222Z,3.10
2022-12-27T23:47:04.089Z,3.10
2022-12-27T23:49:33.447Z,3.10
2022-12-27T23:52:01.365Z,3.10
2022-12-27T23:54:29.413Z,3.20
2022-12-27T23:56:57.672Z,3.20
2022-12-27T23:59:25.636Z,3.30
